Time;durP1;ratioP1;P1;durP2;ratioP2;P2;SDS_P1;SDS_P2;PMS_P1;PMS_P2;Temp;Humidity;BMP_temperature;BMP_pressure;BME280_temperature;BME280_humidity;BME280_pressure;Samples;Min_cycle;Max_cycle;Signal;HPM_P1;HPM_P2
2023/06/20 03:55:20;;;;;;;2.38;2.33;;;17.40;99.90;;;;;;5861842;23;20226;-67
2023/06/20 03:57:48;;;;;;;3.22;3.13;;;17.60;99.90;;;;;;4975684;28;20211;-68
2023/06/20 04:00:16;;;;;;;4.03;3.83;;;17.60;99.90;;;;;;4975953;28;20211;-68
2023/06/20 04:02:44;;;;;;;3.42;3.33;;;17.60;99.90;;;;;;4975914;28;20200;-68
2023/06/20 04:05:10;;;;;;;5.22;4.90;;;17.70;99.90;;;;;;4975773;28;20314;-68
2023/06/20 04:07:41;;;;;;;7.35;6.65;;;17.70;99.90;;;;;;4975482;28;20698;-68
2023/06/20 04:10:09;;;;;;;9.00;8.20;;;17.80;99.90;;;;;;4976135;28;20234;-68
2023/06/20 04:12:36;;;;;;;9.70;8.90;;;17.70;99.90;;;;;;4976035;28;20211;-68
2023/06/20 04:15:05;;;;;;;9.68;8.88;;;17.80;99.90;;;;;;4976284;28;20231;-68
2023/06/20 04:17:31;;;;;;;7.63;7.03;;;17.80;99.90;;;;;;4975757;28;20202;-67
2023/06/20 04:19:59;;;;;;;10.05;9.27;;;17.90;99.90;;;;;;4975689;28;20210;-69
2023/06/20 04:22:26;;;;;;;9.75;8.85;;;17.90;99.90;;;;;;4975792;28;20254;-71
2023/06/20 04:24:53;;;;;;;11.80;10.70;;;18.00;99.90;;;;;;4975369;28;20259;-76
2023/06/20 04:27:20;;;;;;;11.30;10.20;;;18.00;99.90;;;;;;4974982;28;20227;-72
2023/06/20 04:29:47;;;;;;;10.73;9.82;;;18.00;99.90;;;;;;4975499;28;20207;-71
2023/06/20 04:32:15;;;;;;;11.77;10.57;;;18.00;99.90;;;;;;4975378;28;20199;-71
2023/06/20 04:34:41;;;;;;;10.55;9.73;;;18.10;99.90;;;;;;4975216;28;20227;-71
2023/06/20 04:37:08;;;;;;;10.55;9.70;;;18.10;99.90;;;;;;4975499;28;20199;-73
2023/06/20 04:39:35;;;;;;;12.82;11.73;;;18.10;99.90;;;;;;4976940;28;20237;-71
2023/06/20 04:42:02;;;;;;;11.48;10.48;;;18.20;99.90;;;;;;4976808;28;20235;-70
2023/06/20 04:44:29;;;;;;;11.35;10.40;;;18.40;99.90;;;;;;4976546;28;20226;-69
2023/06/20 04:46:56;;;;;;;9.48;8.77;;;18.50;99.90;;;;;;4975345;28;20219;-74
2023/06/20 04:49:24;;;;;;;11.23;10.32;;;18.70;99.90;;;;;;4975404;28;20203;-70
2023/06/20 04:51:50;;;;;;;12.10;11.00;;;18.90;99.90;;;;;;4975737;28;20202;-71
2023/06/20 04:54:17;;;;;;;10.45;9.60;;;19.00;99.90;;;;;;4976067;28;20683;-70
2023/06/20 04:56:44;;;;;;;12.48;11.27;;;19.10;99.90;;;;;;4976372;28;20203;-71
2023/06/20 04:59:11;;;;;;;11.27;10.15;;;19.10;99.90;;;;;;4975207;28;20198;-70
2023/06/20 05:01:38;;;;;;;11.20;10.00;;;19.20;99.90;;;;;;4974834;28;20198;-71
2023/06/20 05:04:05;;;;;;;8.57;7.97;;;19.60;99.90;;;;;;4974980;28;20239;-71
2023/06/20 05:06:33;;;;;;;9.65;8.93;;;19.80;99.90;;;;;;4974825;28;20226;-71
2023/06/20 05:09:00;;;;;;;10.25;9.05;;;19.50;99.90;;;;;;4974916;28;20253;-71
2023/06/20 05:11:27;;;;;;;8.38;7.78;;;19.50;99.90;;;;;;4975225;28;20210;-72
2023/06/20 05:13:53;;;;;;;7.95;7.35;;;19.50;99.90;;;;;;4974883;28;20213;-71
2023/06/20 14:38:53;;;;;;;5.65;3.20;;;31.80;59.10;;;;;;5864270;23;20258;-70
2023/06/20 14:41:22;;;;;;;5.60;3.15;;;31.80;63.50;;;;;;4977500;28;20210;-70
2023/06/20 14:43:49;;;;;;;4.35;3.17;;;32.00;63.90;;;;;;4977400;28;20277;-70
2023/06/20 14:46:16;;;;;;;5.47;3.00;;;32.00;63.60;;;;;;4977587;28;20207;-70
2023/06/20 14:48:43;;;;;;;5.60;3.28;;;32.00;62.10;;;;;;4979599;28;20610;-70
2023/06/20 14:51:10;;;;;;;9.98;3.70;;;32.00;60.90;;;;;;4981871;28;20207;-70
2023/06/20 14:53:37;;;;;;;5.03;3.00;;;31.80;59.20;;;;;;4980672;28;20203;-72
2023/06/20 14:56:04;;;;;;;3.63;2.97;;;31.80;64.10;;;;;;4975844;28;20210;-71
2023/06/20 14:58:31;;;;;;;4.85;3.13;;;31.90;67.10;;;;;;4977150;28;20244;-72
2023/06/20 15:00:58;;;;;;;3.10;2.80;;;31.90;66.60;;;;;;4977005;28;20214;-72
2023/06/20 15:03:25;;;;;;;4.85;2.92;;;31.90;62.80;;;;;;4977172;28;20297;-71
2023/06/20 15:05:52;;;;;;;3.38;3.08;;;31.90;61.50;;;;;;4976684;28;20297;-72
2023/06/20 15:08:19;;;;;;;5.47;3.33;;;31.90;59.90;;;;;;4976850;28;20281;-71
2023/06/20 15:10:46;;;;;;;5.20;3.30;;;31.90;60.60;;;;;;4976948;28;20203;-71
2023/06/20 15:13:12;;;;;;;4.18;3.38;;;31.80;62.30;;;;;;4976842;28;20229;-72
2023/06/20 15:15:40;;;;;;;6.80;3.58;;;31.80;59.80;;;;;;4976806;28;20207;-72
2023/06/20 15:18:07;;;;;;;8.18;4.20;;;31.60;58.90;;;;;;4976343;28;20219;-72
2023/06/20 15:20:34;;;;;;;5.65;3.45;;;31.60;64.90;;;;;;4976562;28;20203;-71
2023/06/20 15:23:00;;;;;;;11.02;3.90;;;31.50;62.60;;;;;;4976627;28;20206;-71
2023/06/20 15:25:27;;;;;;;10.07;3.92;;;31.40;58.70;;;;;;4976609;28;20203;-71
2023/06/20 15:27:54;;;;;;;5.93;3.90;;;31.30;61.80;;;;;;4976222;28;20670;-71
2023/06/20 15:30:20;;;;;;;4.07;3.50;;;31.30;61.00;;;;;;4976780;28;20210;-71
2023/06/20 15:32:49;;;;;;;6.25;3.70;;;31.30;62.20;;;;;;4976646;28;20206;-71
2023/06/20 15:35:16;;;;;;;5.13;3.45;;;31.30;59.90;;;;;;4981320;28;20223;-71
2023/06/20 15:37:43;;;;;;;3.22;2.92;;;31.40;60.90;;;;;;4981112;28;20206;-72
2023/06/20 15:40:11;;;;;;;3.10;2.83;;;31.40;64.60;;;;;;4981678;28;20658;-71
2023/06/20 15:42:39;;;;;;;4.45;3.35;;;31.50;65.10;;;;;;4981240;28;20272;-72
2023/06/20 15:45:07;;;;;;;5.05;3.47;;;31.60;67.40;;;;;;4980761;28;20202;-71
2023/06/20 15:47:34;;;;;;;9.43;3.50;;;31.60;76.10;;;;;;4981499;28;20597;-72
2023/06/20 15:50:04;;;;;;;4.25;3.88;;;31.50;65.40;;;;;;4980628;28;20226;-73
2023/06/20 15:52:31;;;;;;;5.40;3.83;;;31.30;66.30;;;;;;4980470;28;20206;-73
2023/06/20 15:54:58;;;;;;;4.57;3.47;;;31.20;66.90;;;;;;4980522;28;20257;-72
2023/06/20 15:57:25;;;;;;;4.13;3.83;;;31.00;74.30;;;;;;4980834;28;20225;-72
2023/06/20 15:59:52;;;;;;;5.97;3.80;;;30.80;77.10;;;;;;4980458;28;20246;-72
2023/06/20 16:02:21;;;;;;;4.22;3.22;;;30.60;90.70;;;;;;4979659;28;20210;-72
2023/06/20 16:04:48;;;;;;;3.80;3.50;;;30.40;93.40;;;;;;4977515;28;20203;-72
2023/06/20 16:07:17;;;;;;;4.70;3.63;;;30.30;99.90;;;;;;4975445;28;20238;-71
2023/06/20 16:09:43;;;;;;;4.28;3.30;;;30.20;99.90;;;;;;4976734;28;20223;-72
2023/06/20 16:12:11;;;;;;;3.55;3.00;;;30.00;99.90;;;;;;4975783;28;20207;-72
2023/06/20 16:14:39;;;;;;;3.33;3.10;;;29.90;99.90;;;;;;4975605;28;20713;-73
2023/06/20 16:17:07;;;;;;;3.30;3.00;;;29.80;99.90;;;;;;4975703;28;20241;-73
2023/06/20 16:19:33;;;;;;;3.50;3.15;;;29.60;99.90;;;;;;4975577;28;20222;-73
2023/06/20 16:22:00;;;;;;;3.17;2.97;;;29.40;99.90;;;;;;4976263;28;20555;-74
2023/06/20 16:24:29;;;;;;;2.80;2.65;;;29.20;99.90;;;;;;4975487;28;20686;-73
2023/06/20 16:26:56;;;;;;;3.58;3.28;;;29.10;99.90;;;;;;4975785;28;20230;-74
2023/06/20 16:29:22;;;;;;;3.17;2.97;;;28.80;99.90;;;;;;4975144;28;20728;-74
2023/06/20 16:31:49;;;;;;;4.50;2.92;;;28.60;99.90;;;;;;4975891;28;20191;-73
2023/06/20 16:34:17;;;;;;;3.03;2.92;;;28.40;99.90;;;;;;4975571;28;20198;-73
2023/06/20 16:36:44;;;;;;;2.80;2.60;;;28.20;99.90;;;;;;4975385;28;20550;-73
2023/06/20 16:39:10;;;;;;;3.08;2.78;;;28.00;99.90;;;;;;4976119;28;20226;-73
2023/06/20 16:41:39;;;;;;;2.75;2.55;;;27.80;99.90;;;;;;4975270;28;20582;-74
2023/06/20 16:44:06;;;;;;;3.05;2.85;;;27.60;99.90;;;;;;4975283;28;20199;-74
2023/06/20 16:46:33;;;;;;;3.72;2.80;;;27.40;99.90;;;;;;4975371;28;20232;-72
2023/06/20 16:49:00;;;;;;;2.67;2.58;;;27.30;99.90;;;;;;4975019;28;20253;-72
2023/06/20 16:51:27;;;;;;;3.55;3.20;;;27.10;99.90;;;;;;4975157;28;20210;-72
2023/06/20 16:53:54;;;;;;;6.72;3.50;;;27.00;99.90;;;;;;4975323;28;20203;-70
2023/06/20 16:56:20;;;;;;;5.13;3.50;;;26.90;99.90;;;;;;4975617;28;20203;-71
2023/06/20 16:58:48;;;;;;;5.95;3.85;;;26.80;99.90;;;;;;4975395;28;20226;-71
2023/06/20 17:01:15;;;;;;;8.07;3.97;;;26.70;99.90;;;;;;4975754;28;20206;-72
2023/06/20 17:03:42;;;;;;;11.00;4.47;;;26.50;99.90;;;;;;4975481;28;20213;-73
2023/06/20 17:06:08;;;;;;;9.77;4.65;;;26.40;99.90;;;;;;4975370;28;20183;-73
2023/06/20 17:08:35;;;;;;;11.43;6.20;;;26.20;99.90;;;;;;4974924;28;20256;-73
2023/06/20 17:11:02;;;;;;;10.25;4.45;;;25.80;99.90;;;;;;4975209;28;20214;-73
2023/06/20 17:13:28;;;;;;;6.95;4.95;;;25.40;99.90;;;;;;4974683;28;20697;-73
2023/06/20 17:15:56;;;;;;;11.85;5.28;;;25.20;99.90;;;;;;4974849;28;20206;-71
2023/06/20 17:18:23;;;;;;;9.88;5.88;;;24.70;99.90;;;;;;4974022;28;20218;-74
2023/06/20 17:20:50;;;;;;;9.82;5.57;;;24.30;99.90;;;;;;4974883;28;20573;-72
2023/06/20 17:23:17;;;;;;;11.02;5.00;;;23.90;99.90;;;;;;4974754;28;20236;-72
2023/06/20 17:25:44;;;;;;;8.05;4.82;;;23.50;99.90;;;;;;4974743;28;20198;-71
2023/06/20 17:28:11;;;;;;;7.85;3.80;;;23.00;99.90;;;;;;4974596;28;20321;-72
2023/06/20 17:30:38;;;;;;;7.32;3.47;;;22.60;99.90;;;;;;4974494;28;20794;-73
2023/06/20 17:33:06;;;;;;;5.00;3.75;;;22.50;99.90;;;;;;4974590;28;20214;-72
2023/06/20 17:35:32;;;;;;;9.93;5.13;;;22.30;99.90;;;;;;4974595;28;20203;-71
2023/06/20 17:37:59;;;;;;;7.80;4.00;;;22.10;99.90;;;;;;4974625;28;20222;-71
2023/06/20 17:40:26;;;;;;;8.85;3.97;;;22.10;99.90;;;;;;4974704;28;20251;-71
2023/06/20 17:42:52;;;;;;;4.45;3.50;;;22.00;99.90;;;;;;4974811;28;20187;-72
2023/06/20 17:45:19;;;;;;;4.32;3.72;;;22.00;99.90;;;;;;4974216;28;20678;-71
2023/06/20 17:47:46;;;;;;;3.55;3.35;;;22.00;99.90;;;;;;4974642;28;20202;-71
2023/06/20 17:50:14;;;;;;;4.53;3.53;;;22.00;99.90;;;;;;4974735;28;20199;-72
2023/06/20 17:52:41;;;;;;;6.70;4.38;;;21.90;99.90;;;;;;4974630;28;20210;-72
2023/06/20 17:55:09;;;;;;;7.85;4.20;;;21.80;99.90;;;;;;4974494;28;20202;-70
2023/06/20 17:57:35;;;;;;;5.30;3.78;;;21.80;99.90;;;;;;4974308;28;20191;-71
2023/06/20 18:00:03;;;;;;;4.60;3.85;;;21.70;99.90;;;;;;4974590;28;20253;-71
2023/06/20 18:02:30;;;;;;;3.72;3.42;;;21.80;99.90;;;;;;4974889;28;20207;-71
2023/06/20 18:04:56;;;;;;;4.07;3.75;;;21.70;99.90;;;;;;4974647;28;20209;-72
2023/06/20 18:07:25;;;;;;;3.33;3.13;;;21.70;99.90;;;;;;4974700;28;20547;-72
2023/06/20 18:09:51;;;;;;;9.10;4.10;;;21.70;99.90;;;;;;4977337;28;20234;-71
2023/06/20 18:12:18;;;;;;;4.82;4.32;;;21.60;99.90;;;;;;4975354;28;20202;-72
2023/06/20 18:14:45;;;;;;;4.28;3.88;;;21.60;99.90;;;;;;4975307;28;20244;-72
2023/06/20 18:17:11;;;;;;;5.05;4.00;;;21.50;99.90;;;;;;4974672;28;20199;-71
2023/06/20 18:19:38;;;;;;;3.78;3.42;;;21.60;99.90;;;;;;4974384;28;20218;-71
2023/06/20 18:22:06;;;;;;;3.58;3.33;;;21.60;99.90;;;;;;4974184;28;20207;-73
2023/06/20 18:24:33;;;;;;;3.33;3.03;;;21.60;99.90;;;;;;4974379;28;20206;-71
2023/06/20 18:27:00;;;;;;;5.10;3.20;;;21.70;99.90;;;;;;4975481;28;20206;-71
2023/06/20 18:29:27;;;;;;;4.38;3.15;;;21.70;99.90;;;;;;4975863;28;20271;-73
2023/06/20 18:31:54;;;;;;;3.70;3.40;;;21.70;99.90;;;;;;4977839;28;20213;-73
2023/06/20 18:34:20;;;;;;;3.08;2.70;;;21.70;99.90;;;;;;4977611;28;20218;-72
2023/06/20 18:36:47;;;;;;;3.22;3.03;;;21.60;99.90;;;;;;4977617;28;20203;-73
2023/06/20 18:39:14;;;;;;;3.45;3.25;;;21.60;99.90;;;;;;4977737;28;20221;-73
2023/06/20 18:41:42;;;;;;;3.15;2.92;;;21.60;99.90;;;;;;4977782;28;20211;-72
2023/06/20 18:44:09;;;;;;;3.65;3.40;;;21.50;99.90;;;;;;4978414;28;20210;-71
2023/06/20 18:46:35;;;;;;;4.30;4.00;;;21.40;99.90;;;;;;4978281;28;20662;-72
2023/06/20 18:49:02;;;;;;;4.50;3.10;;;21.40;99.90;;;;;;4981153;28;20231;-71
2023/06/20 18:51:29;;;;;;;3.17;3.00;;;21.40;99.90;;;;;;4990277;28;20202;-73
2023/06/20 18:53:55;;;;;;;3.75;3.45;;;21.40;99.90;;;;;;4994235;28;20203;-71
2023/06/20 18:56:23;;;;;;;4.03;3.67;;;21.30;99.90;;;;;;4985585;28;20203;-71
2023/06/20 18:58:51;;;;;;;3.83;3.40;;;21.20;99.90;;;;;;4977599;28;20230;-73
2023/06/20 19:01:18;;;;;;;4.32;4.03;;;21.20;99.90;;;;;;4977979;28;20183;-71
2023/06/20 19:03:45;;;;;;;4.68;4.20;;;21.20;99.90;;;;;;4980510;28;20326;-72
2023/06/20 19:06:12;;;;;;;3.78;3.58;;;21.10;99.90;;;;;;4980026;28;20199;-72
2023/06/20 19:08:39;;;;;;;3.72;3.47;;;21.10;99.90;;;;;;4977626;28;20638;-72
2023/06/20 19:11:06;;;;;;;4.18;3.88;;;21.10;99.90;;;;;;4977309;28;20229;-71
2023/06/20 19:13:32;;;;;;;3.92;3.65;;;21.00;99.90;;;;;;4977992;28;20206;-72
2023/06/20 19:16:00;;;;;;;3.47;3.17;;;20.90;99.90;;;;;;4977238;28;20211;-71
2023/06/20 19:18:27;;;;;;;3.97;3.78;;;21.00;99.90;;;;;;4976994;28;20736;-71
2023/06/20 19:20:54;;;;;;;3.88;3.50;;;20.90;99.90;;;;;;4980010;28;20207;-71
2023/06/20 19:23:21;;;;;;;4.13;3.83;;;20.90;99.90;;;;;;4978038;28;20203;-71
2023/06/20 19:25:48;;;;;;;3.88;3.65;;;20.90;99.90;;;;;;4977142;28;20210;-71
2023/06/20 19:28:14;;;;;;;4.05;3.70;;;20.90;99.90;;;;;;4976586;28;20230;-70
2023/06/20 19:30:41;;;;;;;3.50;3.30;;;20.90;99.90;;;;;;4976767;28;20211;-70
2023/06/20 19:33:09;;;;;;;3.33;3.10;;;20.80;99.90;;;;;;4976871;28;20654;-70
2023/06/20 19:35:36;;;;;;;3.70;3.50;;;20.80;99.90;;;;;;4976701;28;20199;-67
2023/06/20 19:38:02;;;;;;;3.92;3.63;;;20.80;99.90;;;;;;4976400;28;20222;-66
2023/06/20 19:40:29;;;;;;;4.22;3.92;;;20.80;99.90;;;;;;4975455;28;20218;-67
2023/06/20 19:42:56;;;;;;;4.68;4.38;;;20.70;99.90;;;;;;4976167;28;20191;-67
2023/06/20 19:45:23;;;;;;;4.03;3.53;;;20.70;99.90;;;;;;4976041;28;20681;-67
2023/06/20 19:47:49;;;;;;;5.38;4.20;;;20.60;99.90;;;;;;4976959;28;20210;-67
2023/06/20 19:50:17;;;;;;;4.85;4.45;;;20.60;99.90;;;;;;4976388;28;20230;-68
2023/06/20 19:52:44;;;;;;;4.65;4.25;;;20.50;99.90;;;;;;4976164;28;20202;-68
2023/06/20 19:55:11;;;;;;;4.40;4.10;;;20.50;99.90;;;;;;4977091;28;20616;-72
2023/06/20 19:57:38;;;;;;;4.70;4.30;;;20.40;99.90;;;;;;4976061;28;20203;-69
2023/06/20 20:00:06;;;;;;;3.78;3.58;;;20.40;99.90;;;;;;4976074;28;20199;-71
2023/06/20 20:02:32;;;;;;;4.07;3.83;;;20.40;99.90;;;;;;4976007;28;20203;-70
2023/06/20 20:04:59;;;;;;;4.65;4.25;;;20.40;99.90;;;;;;4976136;28;20207;-71
2023/06/20 20:07:27;;;;;;;4.10;3.90;;;20.30;99.90;;;;;;4976030;28;20202;-71
2023/06/20 20:09:54;;;;;;;4.20;3.75;;;20.30;99.90;;;;;;4975670;28;20556;-70
2023/06/20 20:12:21;;;;;;;3.88;3.58;;;20.30;99.90;;;;;;4975828;28;20205;-71
2023/06/20 20:14:47;;;;;;;4.53;4.07;;;20.30;99.90;;;;;;4975587;28;20644;-69
2023/06/20 20:17:14;;;;;;;4.78;4.45;;;20.30;99.90;;;;;;4976034;28;20207;-69
2023/06/20 20:19:41;;;;;;;4.57;4.28;;;20.20;99.90;;;;;;4975841;28;20221;-70
2023/06/20 20:22:07;;;;;;;4.13;3.92;;;20.20;99.90;;;;;;4975951;28;20202;-69
2023/06/20 20:24:35;;;;;;;4.10;3.85;;;20.20;99.90;;;;;;4975562;28;20663;-71
2023/06/20 20:27:02;;;;;;;4.45;4.15;;;20.20;99.90;;;;;;4975535;28;20291;-70
2023/06/20 20:29:29;;;;;;;4.88;4.47;;;20.10;99.90;;;;;;4975743;28;20226;-70
2023/06/20 20:31:55;;;;;;;4.25;3.95;;;20.10;99.90;;;;;;4975137;28;20654;-70
2023/06/20 20:34:23;;;;;;;4.32;4.03;;;20.10;99.90;;;;;;4975465;28;20206;-70
2023/06/20 20:36:50;;;;;;;4.50;4.20;;;20.10;99.90;;;;;;4975832;28;20206;-70
2023/06/20 20:39:17;;;;;;;4.68;4.38;;;20.10;99.90;;;;;;4975350;28;20222;-70
2023/06/20 20:41:47;;;;;;;4.82;4.28;;;20.00;99.90;;;;;;4974940;28;20215;-70
2023/06/20 20:44:14;;;;;;;4.18;3.90;;;20.00;99.90;;;;;;4975024;28;20666;-69
2023/06/20 20:46:41;;;;;;;4.55;4.15;;;20.00;99.90;;;;;;4976026;28;20543;-69
2023/06/20 20:49:07;;;;;;;4.50;3.95;;;19.90;99.90;;;;;;4975110;28;20231;-68
2023/06/20 20:51:34;;;;;;;4.50;4.22;;;19.90;99.90;;;;;;4975231;28;20236;-71
2023/06/20 20:54:02;;;;;;;5.15;4.65;;;19.90;99.90;;;;;;4975294;28;20547;-70
2023/06/20 20:56:28;;;;;;;5.22;4.82;;;19.80;99.90;;;;;;4975383;28;20210;-71
2023/06/20 20:58:56;;;;;;;7.32;4.82;;;19.80;99.90;;;;;;4974963;28;20226;-72
2023/06/20 21:01:24;;;;;;;4.95;4.53;;;19.70;99.90;;;;;;4975035;28;20199;-72
2023/06/20 21:03:51;;;;;;;5.40;5.00;;;19.70;99.90;;;;;;4975190;28;20610;-71
2023/06/20 21:06:17;;;;;;;4.40;4.10;;;19.70;99.90;;;;;;4974741;28;20572;-71
2023/06/20 21:08:44;;;;;;;4.55;4.28;;;19.70;99.90;;;;;;4974744;28;20223;-71
2023/06/20 21:11:11;;;;;;;4.47;4.10;;;19.60;99.90;;;;;;4974827;28;20202;-71
2023/06/20 21:13:38;;;;;;;4.38;4.07;;;19.60;99.90;;;;;;4975105;28;20206;-71
2023/06/20 21:16:11;;;;;;;4.75;4.38;;;19.50;99.90;;;;;;4974874;28;20209;-71
2023/06/20 21:18:37;;;;;;;4.80;4.43;;;19.50;99.90;;;;;;4974824;28;20238;-70
2023/06/20 21:21:04;;;;;;;5.47;4.95;;;19.40;99.90;;;;;;4974328;28;20670;-69
2023/06/20 21:23:31;;;;;;;5.93;4.78;;;19.40;99.90;;;;;;4974696;28;20237;-68
2023/06/20 21:25:58;;;;;;;5.38;4.50;;;19.40;99.90;;;;;;4974367;28;20674;-69
2023/06/20 21:28:25;;;;;;;4.72;4.43;;;19.30;99.90;;;;;;4974280;28;20227;-69
2023/06/20 21:30:51;;;;;;;4.88;4.53;;;19.30;99.90;;;;;;4974126;28;20222;-69
2023/06/20 21:33:19;;;;;;;5.20;4.80;;;19.30;99.90;;;;;;4974405;28;20551;-69
2023/06/20 21:35:46;;;;;;;4.38;4.18;;;19.30;99.90;;;;;;4974340;28;20674;-69
2023/06/20 21:38:13;;;;;;;4.50;4.20;;;19.30;99.90;;;;;;4974427;28;20219;-69
2023/06/20 21:40:40;;;;;;;5.10;4.70;;;19.20;99.90;;;;;;4974404;28;20211;-69
2023/06/20 21:43:08;;;;;;;6.63;5.03;;;19.20;99.90;;;;;;4974630;28;20198;-68
